createdAt,value
2023-01-11T00:01:06.220Z,100.00
2023-01-11T00:03:34.798Z,100.00
2023-01-11T00:06:04.966Z,100.00
2023-01-11T00:08:33.166Z,100.00
2023-01-11T00:11:02.428Z,100.00
2023-01-11T00:13:30.953Z,100.00
2023-01-11T00:15:59.045Z,100.00
2023-01-11T00:18:27.181Z,100.00
2023-01-11T00:20:55.218Z,100.00
2023-01-11T00:23:24.731Z,100.00
2023-01-11T00:25:52.836Z,100.00
2023-01-11T00:28:20.943Z,100.00
2023-01-11T00:30:49.944Z,100.00
2023-01-11T00:33:18.057Z,100.00
2023-01-11T00:35:46.187Z,100.00
2023-01-11T00:38:34.579Z,100.00
2023-01-11T00:41:24.017Z,100.00
2023-01-11T00:44:10.557Z,100.00
2023-01-11T00:46:56.187Z,100.00
2023-01-11T00:49:24.538Z,100.00
2023-01-11T00:51:52.614Z,100.00
2023-01-11T00:54:20.914Z,100.00
2023-01-11T00:56:50.457Z,100.00
2023-01-11T00:59:18.567Z,100.00
2023-01-11T01:01:46.725Z,100.00
2023-01-11T01:04:14.906Z,100.00
2023-01-11T01:06:43.514Z,100.00
2023-01-11T01:09:11.985Z,100.00
2023-01-11T01:11:40.062Z,100.00
2023-01-11T01:14:26.370Z,100.00
2023-01-11T01:16:55.199Z,100.00
2023-01-11T01:19:23.789Z,100.00
2023-01-11T01:21:52.243Z,100.00
2023-01-11T01:24:20.425Z,100.00
2023-01-11T01:26:49.086Z,100.00
2023-01-11T01:29:18.702Z,100.00
2023-01-11T01:31:47.306Z,100.00
2023-01-11T01:34:15.477Z,100.00
2023-01-11T01:36:43.738Z,100.00
2023-01-11T01:39:12.802Z,100.00
2023-01-11T01:41:41.085Z,100.00
2023-01-11T01:44:42.147Z,100.00
2023-01-11T01:47:12.350Z,100.00
2023-01-11T01:49:41.784Z,100.00
2023-01-11T01:52:11.330Z,100.00
2023-01-11T01:54:43.625Z,100.00
2023-01-11T01:57:18.264Z,100.00
2023-01-11T01:59:51.692Z,100.00
2023-01-11T02:02:24.121Z,100.00
2023-01-11T02:04:55.818Z,100.00
2023-01-11T02:07:28.881Z,100.00
2023-01-11T02:10:03.372Z,100.00
2023-01-11T02:12:37.133Z,100.00
2023-01-11T02:15:06.402Z,100.00
2023-01-11T02:17:35.900Z,100.00
2023-01-11T02:20:27.386Z,100.00
2023-01-11T02:23:35.088Z,100.00
2023-01-11T02:26:39.789Z,100.00
2023-01-11T02:29:17.194Z,100.00
2023-01-11T02:31:52.809Z,100.00
2023-01-11T02:34:32.857Z,100.00
2023-01-11T02:37:13.685Z,100.00
2023-01-11T02:39:53.636Z,100.00
2023-01-11T02:42:46.253Z,100.00
2023-01-11T02:45:29.046Z,100.00
2023-01-11T02:48:00.334Z,100.00
2023-01-11T02:50:34.583Z,100.00
2023-01-11T02:53:07.458Z,100.00
2023-01-11T02:55:41.140Z,100.00
2023-01-11T02:58:12.216Z,100.00
2023-01-11T03:00:42.875Z,100.00
2023-01-11T03:03:15.371Z,100.00
2023-01-11T03:05:50.339Z,100.00
2023-01-11T03:08:44.575Z,100.00
2023-01-11T03:11:37.530Z,100.00
2023-01-11T03:14:13.282Z,100.00
2023-01-11T03:16:50.725Z,100.00
2023-01-11T03:19:29.239Z,100.00
2023-01-11T03:22:05.707Z,100.00
2023-01-11T03:24:40.232Z,100.00
2023-01-11T03:27:21.275Z,100.00
2023-01-11T03:29:53.675Z,100.00
2023-01-11T03:32:29.684Z,100.00
2023-01-11T03:35:11.499Z,100.00
2023-01-11T03:37:43.003Z,100.00
2023-01-11T03:40:16.460Z,100.00
2023-01-11T03:43:01.983Z,100.00
2023-01-11T03:45:34.462Z,100.00
2023-01-11T03:48:06.934Z,100.00
2023-01-11T03:50:35.783Z,100.00
2023-01-11T03:53:07.526Z,100.00
2023-01-11T03:55:39.658Z,100.00
2023-01-11T03:58:09.210Z,100.00
2023-01-11T04:00:39.036Z,100.00
2023-01-11T04:03:09.749Z,100.00
2023-01-11T04:05:39.711Z,100.00
2023-01-11T04:08:07.793Z,100.00
2023-01-11T04:10:35.976Z,100.00
2023-01-11T04:13:04.394Z,100.00
2023-01-11T04:15:34.729Z,100.00
2023-01-11T04:18:05.919Z,100.00
2023-01-11T04:20:36.101Z,100.00
2023-01-11T04:23:04.892Z,100.00
2023-01-11T04:25:33.279Z,100.00
2023-01-11T04:28:02.793Z,100.00
2023-01-11T04:30:30.928Z,100.00
2023-01-11T04:32:59.650Z,100.00
2023-01-11T04:35:28.678Z,100.00
2023-01-11T04:37:59.465Z,100.00
2023-01-11T04:40:27.579Z,100.00
2023-01-11T04:42:54.641Z,100.00
2023-01-11T04:45:22.967Z,100.00
2023-01-11T04:47:56.668Z,100.00
2023-01-11T04:50:25.604Z,100.00
2023-01-11T04:52:53.799Z,100.00
2023-01-11T04:55:23.250Z,100.00
2023-01-11T04:57:52.129Z,100.00
2023-01-11T05:00:20.755Z,100.00
2023-01-11T05:02:49.549Z,100.00
2023-01-11T05:05:18.179Z,100.00
2023-01-11T05:07:47.351Z,100.00
2023-01-11T05:10:15.490Z,100.00
2023-01-11T05:12:47.157Z,100.00
2023-01-11T05:15:15.466Z,100.00
2023-01-11T05:17:43.605Z,100.00
2023-01-11T05:20:13.010Z,100.00
2023-01-11T05:22:41.065Z,100.00
2023-01-11T05:25:10.009Z,100.00
2023-01-11T05:27:38.066Z,100.00
2023-01-11T05:30:10.004Z,100.00
2023-01-11T05:32:38.106Z,100.00
2023-01-11T05:35:14.270Z,100.00
2023-01-11T05:37:42.515Z,100.00
2023-01-11T05:40:12.107Z,100.00
2023-01-11T05:42:40.371Z,100.00
2023-01-11T05:45:28.142Z,100.00
2023-01-11T05:47:56.410Z,100.00
2023-01-11T05:50:24.777Z,100.00
2023-01-11T05:52:52.925Z,100.00
2023-01-11T05:55:21.315Z,100.00
2023-01-11T05:57:51.163Z,100.00
2023-01-11T06:00:21.682Z,100.00
2023-01-11T06:02:51.313Z,100.00
2023-01-11T06:05:20.016Z,100.00
2023-01-11T06:07:48.158Z,100.00
2023-01-11T06:10:16.377Z,100.00
2023-01-11T06:12:44.582Z,100.00
2023-01-11T06:15:14.249Z,100.00
2023-01-11T06:17:43.712Z,100.00
2023-01-11T06:20:13.384Z,100.00
2023-01-11T06:22:41.461Z,100.00
2023-01-11T06:25:10.362Z,100.00
2023-01-11T06:27:38.449Z,100.00
2023-01-11T06:30:07.706Z,100.00
2023-01-11T06:32:35.796Z,100.00
2023-01-11T06:35:06.046Z,100.00
2023-01-11T06:37:34.356Z,100.00
2023-01-11T06:40:02.423Z,100.00
2023-01-11T06:42:30.600Z,100.00
2023-01-11T06:44:58.926Z,100.00
2023-01-11T06:47:27.678Z,100.00
2023-01-11T06:49:55.774Z,100.00
2023-01-11T06:52:25.739Z,100.00
2023-01-11T06:54:53.763Z,100.00
2023-01-11T06:57:21.833Z,100.00
2023-01-11T06:59:50.313Z,100.00
2023-01-11T07:02:19.381Z,100.00
2023-01-11T07:04:47.474Z,100.00
2023-01-11T07:07:15.649Z,100.00
2023-01-11T07:09:45.791Z,100.00
2023-01-11T07:12:13.938Z,100.00
2023-01-11T07:14:42.073Z,100.00
2023-01-11T07:17:10.215Z,100.00
2023-01-11T07:19:38.341Z,100.00
2023-01-11T07:22:06.452Z,100.00
2023-01-11T07:24:34.558Z,100.00
2023-01-11T07:27:05.152Z,100.00
2023-01-11T07:29:33.293Z,100.00
2023-01-11T07:32:01.500Z,100.00
2023-01-11T07:34:29.476Z,100.00
2023-01-11T07:36:57.613Z,100.00
2023-01-11T07:39:38.566Z,100.00
2023-01-11T07:42:29.826Z,100.00
2023-01-11T07:44:58.020Z,100.00
2023-01-11T07:47:26.044Z,100.00
2023-01-11T07:49:54.027Z,100.00
2023-01-11T07:52:22.118Z,100.00
2023-01-11T07:54:50.247Z,100.00
2023-01-11T07:57:19.786Z,100.00
2023-01-11T07:59:47.928Z,100.00
2023-01-11T08:02:16.103Z,100.00
2023-01-11T08:04:44.389Z,100.00
2023-01-11T08:07:12.572Z,100.00
2023-01-11T08:09:40.639Z,100.00
2023-01-11T08:12:26.769Z,100.00
2023-01-11T08:14:56.237Z,100.00
2023-01-11T08:17:24.365Z,100.00
2023-01-11T08:19:52.939Z,100.00
2023-01-11T08:22:20.989Z,100.00
2023-01-11T08:24:49.108Z,100.00
2023-01-11T08:27:17.556Z,100.00
2023-01-11T08:29:45.560Z,100.00
2023-01-11T08:32:15.198Z,100.00
2023-01-11T08:34:44.467Z,100.00
2023-01-11T08:37:12.598Z,100.00
2023-01-11T08:39:40.783Z,100.00
2023-01-11T08:42:08.973Z,100.00
2023-01-11T08:44:37.298Z,100.00
2023-01-11T08:47:05.468Z,100.00
2023-01-11T08:49:35.110Z,100.00
2023-01-11T08:52:03.185Z,100.00
2023-01-11T08:54:31.297Z,99.79
2023-01-11T08:56:59.542Z,99.52
2023-01-11T08:59:27.607Z,97.56
2023-01-11T09:01:55.794Z,96.20
2023-01-11T09:04:25.742Z,96.79
2023-01-11T09:06:55.742Z,97.54
2023-01-11T09:09:24.099Z,98.36
2023-01-11T09:11:56.847Z,98.78
2023-01-11T09:14:27.018Z,99.67
2023-01-11T09:16:55.918Z,100.00
2023-01-11T09:19:24.205Z,100.00
2023-01-11T09:21:53.386Z,100.00
2023-01-11T09:24:22.993Z,100.00
2023-01-11T09:26:51.152Z,99.59
2023-01-11T09:29:20.149Z,99.11
2023-01-11T09:31:48.339Z,96.55
2023-01-11T09:34:16.551Z,96.99
2023-01-11T09:36:49.409Z,97.36
2023-01-11T09:39:20.516Z,96.85
2023-01-11T09:42:17.186Z,98.24
2023-01-11T09:44:51.932Z,94.96
2023-01-11T09:47:30.837Z,97.10
2023-01-11T09:50:02.287Z,96.88
2023-01-11T09:52:37.226Z,93.32
2023-01-11T09:55:07.381Z,92.09
2023-01-11T09:57:55.027Z,92.17
2023-01-11T10:00:33.857Z,92.32
2023-01-11T10:03:19.691Z,91.86
2023-01-11T10:06:03.092Z,93.29
2023-01-11T10:18:28.731Z,88.83
2023-01-11T10:18:34.256Z,89.35
2023-01-11T10:20:48.001Z,87.76
2023-01-11T10:23:25.144Z,85.65
2023-01-11T10:25:58.822Z,86.48
2023-01-11T10:28:35.302Z,85.46
2023-01-11T10:31:29.996Z,84.86
2023-01-11T10:34:21.069Z,85.91
2023-01-11T10:37:17.056Z,85.47
2023-01-11T10:40:15.529Z,84.95
2023-01-11T10:42:49.145Z,83.20
2023-01-11T10:45:23.791Z,82.73
2023-01-11T10:48:01.530Z,82.03
2023-01-11T10:50:37.543Z,81.40
2023-01-11T10:53:17.214Z,82.60
2023-01-11T10:55:51.607Z,81.93
2023-01-11T10:58:39.048Z,81.36
2023-01-11T11:01:17.344Z,79.23
2023-01-11T11:04:15.827Z,79.89
2023-01-11T11:06:52.704Z,81.31
2023-01-11T11:09:28.034Z,74.74
2023-01-11T11:12:01.481Z,74.99
2023-01-11T11:14:36.503Z,74.16
2023-01-11T11:17:12.828Z,74.87
2023-01-11T11:19:42.750Z,73.70
2023-01-11T11:22:12.502Z,73.92
2023-01-11T11:24:44.960Z,74.05
2023-01-11T11:27:22.585Z,73.00
2023-01-11T11:29:52.913Z,71.85
2023-01-11T11:32:27.401Z,73.14
2023-01-11T11:34:57.411Z,71.11
2023-01-11T11:37:29.312Z,72.41
2023-01-11T11:39:57.988Z,73.44
2023-01-11T11:42:27.292Z,72.89
2023-01-11T11:45:18.245Z,73.29
2023-01-11T11:48:03.563Z,71.52
2023-01-11T11:50:48.630Z,71.45
2023-01-11T11:53:30.831Z,71.14
2023-01-11T11:56:07.166Z,71.64
2023-01-11T11:58:43.782Z,71.71
2023-01-11T12:01:26.422Z,71.82
2023-01-11T12:03:57.385Z,71.56
2023-01-11T12:06:29.714Z,72.60
2023-01-11T12:09:02.077Z,73.43
2023-01-11T12:11:35.471Z,71.72
2023-01-11T12:14:16.633Z,71.79
2023-01-11T12:16:46.685Z,72.05
2023-01-11T12:19:36.296Z,72.53
2023-01-11T12:22:18.858Z,73.47
2023-01-11T12:25:05.920Z,73.32
2023-01-11T12:27:41.518Z,73.29
2023-01-11T12:30:22.085Z,73.25
2023-01-11T12:33:29.254Z,73.63
2023-01-11T12:36:04.352Z,74.47
2023-01-11T12:38:40.728Z,74.09
2023-01-11T12:41:51.540Z,72.83
2023-01-11T12:44:32.317Z,73.37
2023-01-11T12:47:17.985Z,73.86
2023-01-11T12:49:55.758Z,74.19
2023-01-11T12:52:39.346Z,73.58
2023-01-11T12:55:44.993Z,72.97
2023-01-11T12:58:21.470Z,73.24
2023-01-11T13:01:21.926Z,71.80
2023-01-11T13:04:12.141Z,72.25
2023-01-11T13:06:45.265Z,72.02
2023-01-11T13:09:30.783Z,71.32
2023-01-11T13:12:08.584Z,72.04
2023-01-11T13:14:50.856Z,71.86
2023-01-11T13:17:28.339Z,71.60
2023-01-11T13:20:09.093Z,72.36
2023-01-11T13:22:41.012Z,72.16
2023-01-11T13:25:17.169Z,72.53
2023-01-11T13:27:49.686Z,72.28
2023-01-11T13:30:20.077Z,72.22
2023-01-11T13:32:55.399Z,73.37
2023-01-11T13:35:37.790Z,73.10
2023-01-11T13:38:15.175Z,71.60
2023-01-11T13:40:48.503Z,71.54
2023-01-11T13:43:22.542Z,71.33
2023-01-11T13:45:55.554Z,72.52
2023-01-11T13:48:28.529Z,72.59
2023-01-11T13:51:04.774Z,71.67
2023-01-11T13:53:40.213Z,72.09
2023-01-11T13:56:15.836Z,72.69
2023-01-11T13:58:53.236Z,72.45
2023-01-11T14:01:32.137Z,71.17
2023-01-11T14:04:05.733Z,72.13
2023-01-11T14:06:47.466Z,70.10
2023-01-11T14:09:37.112Z,70.99
2023-01-11T14:12:15.612Z,69.10
2023-01-11T14:15:03.665Z,69.37
2023-01-11T14:17:42.989Z,69.55
2023-01-11T14:20:21.492Z,70.98
2023-01-11T14:22:59.517Z,70.16
2023-01-11T14:25:32.096Z,69.96
2023-01-11T14:28:29.690Z,70.64
2023-01-11T14:31:13.012Z,70.76
2023-01-11T14:33:59.232Z,71.13
2023-01-11T14:36:58.256Z,69.81
2023-01-11T14:39:49.836Z,69.83
2023-01-11T14:42:43.744Z,71.36
2023-01-11T14:45:26.790Z,71.62
2023-01-11T14:48:13.174Z,72.51
2023-01-11T14:50:55.214Z,72.77
2023-01-11T14:53:28.626Z,74.25
2023-01-11T14:55:56.772Z,74.91
2023-01-11T14:58:28.797Z,75.68
2023-01-11T15:01:12.063Z,76.04
2023-01-11T15:03:51.282Z,77.42
2023-01-11T15:06:22.873Z,77.78
2023-01-11T15:08:54.988Z,78.56
2023-01-11T15:11:39.499Z,77.75
2023-01-11T15:14:23.686Z,78.32
2023-01-11T15:17:11.299Z,78.48
2023-01-11T15:19:44.230Z,77.95
2023-01-11T15:22:27.306Z,78.59
2023-01-11T15:25:05.130Z,80.67
2023-01-11T15:27:35.744Z,81.30
2023-01-11T15:30:07.587Z,80.76
2023-01-11T15:32:37.183Z,80.51
2023-01-11T15:35:33.148Z,80.23
2023-01-11T15:38:12.871Z,81.29
2023-01-11T15:40:44.129Z,81.12
2023-01-11T15:43:52.908Z,81.01
2023-01-11T15:47:05.640Z,81.09
2023-01-11T15:50:32.337Z,82.06
2023-01-11T15:53:51.130Z,81.22
2023-01-11T15:56:45.719Z,81.37
2023-01-11T15:59:40.687Z,80.96
2023-01-11T16:02:56.137Z,83.14
2023-01-11T16:05:28.846Z,83.15
2023-01-11T16:08:14.383Z,83.70
2023-01-11T16:11:10.491Z,84.32
2023-01-11T16:13:55.853Z,85.09
2023-01-11T16:16:29.359Z,85.35
2023-01-11T16:18:59.947Z,83.66
2023-01-11T16:21:33.945Z,84.33
2023-01-11T16:24:05.537Z,83.97
2023-01-11T16:26:36.952Z,84.20
2023-01-11T16:29:11.979Z,83.60
2023-01-11T16:31:55.668Z,82.37
2023-01-11T16:34:23.995Z,83.11
2023-01-11T16:36:53.527Z,83.18
2023-01-11T16:39:24.158Z,83.11
2023-01-11T16:41:57.213Z,83.77
2023-01-11T16:44:35.158Z,84.75
2023-01-11T16:47:13.731Z,85.00
2023-01-11T16:49:43.780Z,85.00
2023-01-11T16:52:53.586Z,84.29
2023-01-11T16:55:37.252Z,84.72
2023-01-11T16:58:08.339Z,86.03
2023-01-11T17:00:39.795Z,86.45
2023-01-11T17:03:20.527Z,87.54
2023-01-11T17:06:03.734Z,88.78
2023-01-11T17:08:35.043Z,90.29
2023-01-11T17:11:14.332Z,93.29
2023-01-11T17:14:11.096Z,94.91
2023-01-11T17:16:40.914Z,95.22
2023-01-11T17:19:15.243Z,95.79
2023-01-11T17:21:48.857Z,95.36
2023-01-11T17:24:18.299Z,95.73
2023-01-11T17:26:51.415Z,94.92
2023-01-11T17:29:26.568Z,95.38
2023-01-11T17:31:56.168Z,95.17
2023-01-11T17:34:28.790Z,93.67
2023-01-11T17:36:59.592Z,95.22
2023-01-11T17:39:31.712Z,94.68
2023-01-11T17:42:21.186Z,95.08
2023-01-11T17:45:09.273Z,94.78
2023-01-11T17:47:40.093Z,95.06
2023-01-11T17:50:23.898Z,93.94
2023-01-11T17:52:55.046Z,94.84
2023-01-11T17:55:25.658Z,94.85
2023-01-11T17:58:18.023Z,95.91
2023-01-11T18:01:04.062Z,95.56
2023-01-11T18:03:32.810Z,95.62
2023-01-11T18:06:12.519Z,95.76
2023-01-11T18:08:41.311Z,96.36
2023-01-11T18:11:10.461Z,96.44
2023-01-11T18:13:39.986Z,97.77
2023-01-11T18:16:08.007Z,99.32
2023-01-11T18:18:45.097Z,97.18
2023-01-11T18:21:41.530Z,96.79
2023-01-11T18:24:43.743Z,96.00
2023-01-11T18:27:24.604Z,96.84
2023-01-11T18:29:56.225Z,95.71
2023-01-11T18:32:24.794Z,96.31
2023-01-11T18:34:55.333Z,96.20
2023-01-11T18:37:23.601Z,95.30
2023-01-11T18:39:54.836Z,96.63
2023-01-11T18:42:30.287Z,96.01
2023-01-11T18:44:59.746Z,96.03
2023-01-11T18:47:30.589Z,95.57
2023-01-11T18:49:59.293Z,95.11
2023-01-11T18:52:29.401Z,95.21
2023-01-11T18:54:58.566Z,94.66
2023-01-11T18:57:27.106Z,93.70
2023-01-11T18:59:56.242Z,94.37
2023-01-11T19:02:28.030Z,94.68
2023-01-11T19:04:57.593Z,93.71
2023-01-11T19:07:27.128Z,94.43
2023-01-11T19:09:56.161Z,95.54
2023-01-11T19:12:24.695Z,96.51
2023-01-11T19:14:52.766Z,96.96
2023-01-11T19:17:20.992Z,98.38
2023-01-11T19:19:50.489Z,99.43
2023-01-11T19:22:18.799Z,100.00
2023-01-11T19:24:47.010Z,100.00
2023-01-11T19:27:16.828Z,100.00
2023-01-11T19:29:44.972Z,100.00
2023-01-11T19:32:13.491Z,100.00
2023-01-11T19:34:41.604Z,100.00
2023-01-11T19:37:11.368Z,100.00
2023-01-11T19:39:40.197Z,100.00
2023-01-11T19:42:08.473Z,99.56
2023-01-11T19:44:39.145Z,99.32
2023-01-11T19:47:12.001Z,99.20
2023-01-11T19:49:41.558Z,99.18
2023-01-11T19:52:14.043Z,99.48
2023-01-11T19:54:43.150Z,99.08
2023-01-11T19:57:12.512Z,99.25
2023-01-11T19:59:40.842Z,99.79
2023-01-11T20:02:10.886Z,99.38
2023-01-11T20:04:39.218Z,99.69
2023-01-11T20:07:09.735Z,100.00
2023-01-11T20:09:41.161Z,100.00
2023-01-11T20:12:13.697Z,100.00
2023-01-11T20:14:45.426Z,100.00
2023-01-11T20:17:14.825Z,100.00
2023-01-11T20:19:47.411Z,100.00
2023-01-11T20:22:16.877Z,100.00
2023-01-11T20:24:48.682Z,100.00
2023-01-11T20:27:17.678Z,100.00
2023-01-11T20:29:45.953Z,100.00
2023-01-11T20:32:39.256Z,100.00
2023-01-11T20:35:06.181Z,100.00
2023-01-11T20:37:36.262Z,100.00
2023-01-11T20:40:09.007Z,100.00
2023-01-11T20:42:40.351Z,100.00
2023-01-11T20:45:11.596Z,100.00
2023-01-11T20:47:43.297Z,100.00
2023-01-11T20:50:17.888Z,100.00
2023-01-11T20:52:51.872Z,100.00
2023-01-11T20:55:22.970Z,100.00
2023-01-11T20:57:53.068Z,100.00
2023-01-11T21:00:27.693Z,100.00
2023-01-11T21:02:56.585Z,100.00
2023-01-11T21:05:24.636Z,100.00
2023-01-11T21:07:54.349Z,100.00
2023-01-11T21:10:23.882Z,100.00
2023-01-11T21:12:52.795Z,100.00
2023-01-11T21:15:20.855Z,100.00
2023-01-11T21:17:49.002Z,100.00
2023-01-11T21:20:17.919Z,100.00
2023-01-11T21:22:45.992Z,100.00
2023-01-11T21:25:14.112Z,100.00
2023-01-11T21:27:43.680Z,100.00
2023-01-11T21:30:12.673Z,100.00
2023-01-11T21:32:40.869Z,100.00
2023-01-11T21:35:09.753Z,100.00
2023-01-11T21:37:37.892Z,100.00
2023-01-11T21:40:10.434Z,100.00
2023-01-11T21:42:38.758Z,100.00
2023-01-11T21:45:10.164Z,100.00
2023-01-11T21:47:41.108Z,100.00
2023-01-11T21:50:11.418Z,100.00
2023-01-11T21:52:40.080Z,100.00
2023-01-11T21:55:11.415Z,100.00
2023-01-11T21:57:39.945Z,100.00
2023-01-11T22:00:14.331Z,100.00
2023-01-11T22:02:43.109Z,100.00
2023-01-11T22:05:12.197Z,100.00
2023-01-11T22:07:43.835Z,100.00
2023-01-11T22:10:13.262Z,100.00
2023-01-11T22:12:41.893Z,100.00
2023-01-11T22:15:14.648Z,100.00
2023-01-11T22:17:43.756Z,100.00
2023-01-11T22:20:15.160Z,100.00
2023-01-11T22:22:43.337Z,100.00
2023-01-11T22:25:11.651Z,100.00
2023-01-11T22:27:39.786Z,100.00
2023-01-11T22:30:09.372Z,100.00
2023-01-11T22:32:38.780Z,100.00
2023-01-11T22:35:10.215Z,100.00
2023-01-11T22:37:38.258Z,100.00
2023-01-11T22:40:07.230Z,100.00
2023-01-11T22:42:35.427Z,100.00
2023-01-11T22:45:04.627Z,100.00
2023-01-11T22:47:32.732Z,100.00
2023-01-11T22:50:02.251Z,100.00
2023-01-11T22:52:32.166Z,100.00
2023-01-11T22:55:00.287Z,100.00
2023-01-11T22:57:28.334Z,100.00
2023-01-11T22:59:58.783Z,100.00
2023-01-11T23:02:27.055Z,100.00
2023-01-11T23:04:55.163Z,100.00
2023-01-11T23:07:24.653Z,100.00
2023-01-11T23:09:52.788Z,100.00
2023-01-11T23:12:38.246Z,100.00
2023-01-11T23:15:07.152Z,100.00
2023-01-11T23:17:35.178Z,100.00
2023-01-11T23:20:22.010Z,100.00
2023-01-11T23:22:52.462Z,100.00
2023-01-11T23:25:20.575Z,100.00
2023-01-11T23:27:49.478Z,100.00
2023-01-11T23:30:20.184Z,100.00
2023-01-11T23:32:48.250Z,100.00
2023-01-11T23:35:16.418Z,100.00
2023-01-11T23:37:44.613Z,100.00
2023-01-11T23:40:14.353Z,100.00
2023-01-11T23:42:41.386Z,100.00
2023-01-11T23:45:10.880Z,100.00
2023-01-11T23:47:37.960Z,100.00
2023-01-11T23:50:06.771Z,100.00
2023-01-11T23:52:35.049Z,100.00
2023-01-11T23:55:03.176Z,100.00
2023-01-11T23:57:32.642Z,100.00
